Last Straw — WAI7550 — position and weather

sailwx.info

Track history (hours):
 
Tides and Currents Weather Stations Pressure Air Temp Water Temp Dewpoint Dewpoint Depression Visibility Wind Speed Wind Dir Waves Ship Positions

Last Straw

Owner: HEARNE, BRETT, NEWPORT, OR. More information available from US FCC via Universal Licensing System and Coast Guard Vessel Documentation Center.

Last reported at 2017-Oct-24 14:15 UTC. Time now 2017-Nov-20 02:05 UTC.
Position N 44°58' W 124°49'.
Warning: this ship's position is 26 days out of date.

Length 41 m; draft 6 m.

Type: Fishing. MMSI: 366245070.

Date/timePositionNaut miles runAvg speedWind from/ knotsBaromVisibWave heightAir tempDewpointWater temp
2017-Oct-24 14:15N 44°58' W 124°49'0 1.4
2017-Oct-24 13:59N 44°59' W 124°49'1 1.4
2017-Oct-24 13:30N 44°60' W 124°48'1 1.6
2017-Oct-24 13:00N 45°00' W 124°48'1 1.6
2017-Oct-24 12:30N 45°01' W 124°48'1 1.6
2017-Oct-24 12:00N 45°02' W 124°48'1 1.7
2017-Oct-24 11:30N 45°03' W 124°48'1 1.6
2017-Oct-24 11:00N 45°04' W 124°48'1 1.6
2017-Oct-24 10:30N 45°04' W 124°48'1 1.6
2017-Oct-24 10:00N 45°05' W 124°49'1 1.4
2017-Oct-24 09:30N 45°06' W 124°49'1 1.3
2017-Oct-24 09:00N 45°06' W 124°49'1 1.3
2017-Oct-24 08:30N 45°07' W 124°50'1 1.1
2017-Oct-24 08:00N 45°07' W 124°51'1 1.1
2017-Oct-24 07:18N 45°08' W 124°51'0 0.9
2017-Oct-24 07:00N 45°08' W 124°52'0 0.8
2017-Oct-24 06:30N 45°08' W 124°52'0 0.7
2017-Oct-24 06:00N 45°08' W 124°53'0 0.5
2017-Oct-24 05:30N 45°08' W 124°53'0 0.1
2017-Oct-24 05:00N 45°08' W 124°53'0 0.9
2017-Oct-24 04:30N 45°08' W 124°52'1 2.1
2017-Oct-24 04:00N 45°08' W 124°54'1 1.8
2017-Oct-24 03:27N 45°07' W 124°55'1 0.8
2017-Oct-24 02:37N 45°08' W 124°54'1 6.4
2017-Oct-24 02:24N 45°07' W 124°54'1 3.4
2017-Oct-24 02:00N 45°06' W 124°53'4 7.8
2017-Oct-24 01:30N 45°02' W 124°50'7 7.4
2017-Oct-24 00:33N 44°57' W 124°43'0 2.1
2017-Oct-24 00:30N 44°57' W 124°43'3 3.6
2017-Oct-23 23:44N 44°56' W 124°47'1 1.3
2017-Oct-23 23:06N 44°57' W 124°46'0 1.2
2017-Oct-23 23:00N 44°57' W 124°46'1 1.0
2017-Oct-23 22:21N 44°57' W 124°45'0 1.3
2017-Oct-23 22:00N 44°56' W 124°45'4 5.2
2017-Oct-23 21:18N 44°54' W 124°41'2 7.3
2017-Oct-23 21:00N 44°53' W 124°39'4 7.5
2017-Oct-23 20:30N 44°51' W 124°34'5 7.5
2017-Oct-23 19:48N 44°48' W 124°28'  
2017-Oct-18 04:33N 45°02' W 124°43'0 0.0
2017-Oct-18 04:25N 45°02' W 124°43'3 6.2
2017-Oct-18 03:59N 45°03' W 124°46'5 6.4
2017-Oct-18 03:16N 45°06' W 124°51'2 5.4
2017-Oct-18 02:56N 45°07' W 124°53'2 4.7
2017-Oct-18 02:30N 45°07' W 124°56'1 1.3
2017-Oct-18 02:00N 45°08' W 124°55'1 0.7
2017-Oct-18 01:16N 45°07' W 124°55'2 2.2
2017-Oct-18 00:09N 45°08' W 124°52'0 2.2
2017-Oct-17 23:57N 45°08' W 124°52'1 0.7
2017-Oct-17 22:11N 45°07' W 124°53'3 7.0
2017-Oct-17 21:44N 45°04' W 124°50'16 1.7
2017-Oct-17 12:36N 44°53' W 124°35'2 0.9
2017-Oct-17 09:52N 44°54' W 124°38'0 0.4
2017-Oct-17 09:29N 44°54' W 124°38'0 0.2
2017-Oct-17 08:38N 44°54' W 124°38'0 0.3
2017-Oct-17 08:29N 44°54' W 124°38'0 0.9
2017-Oct-17 07:59N 44°54' W 124°38'4 7.3
2017-Oct-17 07:30N 44°55' W 124°33'2 2.9
2017-Oct-17 06:41N 44°57' W 124°31'0 0.9
2017-Oct-17 06:24N 44°57' W 124°31'0 1.1
2017-Oct-17 06:00N 44°56' W 124°30'2 3.6
2017-Oct-17 05:23N 44°57' W 124°33'3 8.3
2017-Oct-17 05:00N 44°59' W 124°37'4 8.0
2017-Oct-17 04:30N 45°01' W 124°41'4 7.9
2017-Oct-17 04:00N 45°03' W 124°46'4 8.0
2017-Oct-17 03:30N 45°06' W 124°51'3 6.6
2017-Oct-17 03:00N 45°07' W 124°55'1 1.0
2017-Oct-17 02:30N 45°07' W 124°55'4 7.4
2017-Oct-17 02:00N 45°04' W 124°52'4 7.3
2017-Oct-17 01:29N 45°01' W 124°48'16 3.3
2017-Oct-16 20:40N 44°48' W 124°35'0 1.5
2017-Oct-16 20:27N 44°48' W 124°35'15 6.9
2017-Oct-16 18:21N 45°00' W 124°46'3 8.1
2017-Oct-16 17:56N 45°03' W 124°49'4 8.2
2017-Oct-16 17:29N 45°06' W 124°52'4 6.2
2017-Oct-16 16:54N 45°09' W 124°55'1 1.4
2017-Oct-16 16:30N 45°09' W 124°54'0 0.7
2017-Oct-16 15:59N 45°09' W 124°54'1 1.5
2017-Oct-16 15:28N 45°08' W 124°53'4 8.3
2017-Oct-16 15:00N 45°05' W 124°51'4 8.2
2017-Oct-16 14:29N 45°01' W 124°49'3 2.7
2017-Oct-16 13:28N 44°58' W 124°48'1 0.9
2017-Oct-16 12:51N 44°59' W 124°48'0 0.9
2017-Oct-16 12:26N 44°59' W 124°48'1 0.9
2017-Oct-16 11:48N 44°60' W 124°48'0 1.0
2017-Oct-16 11:30N 44°60' W 124°48'1 1.0
2017-Oct-16 11:00N 45°00' W 124°49'1 1.0
2017-Oct-16 10:30N 45°01' W 124°49'1 1.0
2017-Oct-16 10:00N 45°01' W 124°49'0 1.0
2017-Oct-16 09:30N 45°02' W 124°49'0 1.0
2017-Oct-16 09:00N 45°02' W 124°49'1 0.9
2017-Oct-16 08:28N 45°03' W 124°49'0 0.9
2017-Oct-16 08:00N 45°03' W 124°49'1 1.3
2017-Oct-16 07:20N 45°04' W 124°49'0 0.3
2017-Oct-16 06:56N 45°04' W 124°49'0 0.9
2017-Oct-16 06:30N 45°04' W 124°49'3 6.5
2017-Oct-16 06:00N 45°02' W 124°47'13 4.1
2017-Oct-16 02:47N 44°59' W 124°28'3 1.9
2017-Oct-16 01:22N 44°56' W 124°29'4 4.4
2017-Oct-16 00:27N 44°54' W 124°34'0 0.8
2017-Oct-15 23:59N 44°54' W 124°34'8 3.5
2017-Oct-15 21:44N 44°49' W 124°43'2 7.7
2017-Oct-15 21:27N 44°47' W 124°40'4 3.4
2017-Oct-15 20:17N 44°45' W 124°36'2 5.9
2017-Oct-15 19:55N 44°44' W 124°33'  
Track history (hours):
 
Tides and Currents Weather Stations Pressure Air Temp Water Temp Dewpoint Dewpoint Depression Visibility Wind Speed Wind Dir Waves Ship Positions

Last Straw

Owner: HEARNE, BRETT, NEWPORT, OR. More information available from US FCC via Universal Licensing System and Coast Guard Vessel Documentation Center.

Last reported at 2017-Oct-24 14:15 UTC. Time now 2017-Nov-20 02:05 UTC.
Position N 44°58' W 124°49'.
Warning: this ship's position is 26 days out of date.

Length 41 m; draft 6 m.

Type: Fishing. MMSI: 366245070.

Date/timePositionNaut miles runAvg speedWind from/ knotsBaromVisibWave heightAir tempDewpointWater temp
2017-Oct-24 14:15N 44°58' W 124°49'0 1.4
2017-Oct-24 13:59N 44°59' W 124°49'1 1.4
2017-Oct-24 13:30N 44°60' W 124°48'1 1.6
2017-Oct-24 13:00N 45°00' W 124°48'1 1.6
2017-Oct-24 12:30N 45°01' W 124°48'1 1.6
2017-Oct-24 12:00N 45°02' W 124°48'1 1.7
2017-Oct-24 11:30N 45°03' W 124°48'1 1.6
2017-Oct-24 11:00N 45°04' W 124°48'1 1.6
2017-Oct-24 10:30N 45°04' W 124°48'1 1.6
2017-Oct-24 10:00N 45°05' W 124°49'1 1.4
2017-Oct-24 09:30N 45°06' W 124°49'1 1.3
2017-Oct-24 09:00N 45°06' W 124°49'1 1.3
2017-Oct-24 08:30N 45°07' W 124°50'1 1.1
2017-Oct-24 08:00N 45°07' W 124°51'1 1.1
2017-Oct-24 07:18N 45°08' W 124°51'0 0.9
2017-Oct-24 07:00N 45°08' W 124°52'0 0.8
2017-Oct-24 06:30N 45°08' W 124°52'0 0.7
2017-Oct-24 06:00N 45°08' W 124°53'0 0.5
2017-Oct-24 05:30N 45°08' W 124°53'0 0.1
2017-Oct-24 05:00N 45°08' W 124°53'0 0.9
2017-Oct-24 04:30N 45°08' W 124°52'1 2.1
2017-Oct-24 04:00N 45°08' W 124°54'1 1.8
2017-Oct-24 03:27N 45°07' W 124°55'1 0.8
2017-Oct-24 02:37N 45°08' W 124°54'1 6.4
2017-Oct-24 02:24N 45°07' W 124°54'1 3.4
2017-Oct-24 02:00N 45°06' W 124°53'4 7.8
2017-Oct-24 01:30N 45°02' W 124°50'7 7.4
2017-Oct-24 00:33N 44°57' W 124°43'0 2.1
2017-Oct-24 00:30N 44°57' W 124°43'3 3.6
2017-Oct-23 23:44N 44°56' W 124°47'1 1.3
2017-Oct-23 23:06N 44°57' W 124°46'0 1.2
2017-Oct-23 23:00N 44°57' W 124°46'1 1.0
2017-Oct-23 22:21N 44°57' W 124°45'0 1.3
2017-Oct-23 22:00N 44°56' W 124°45'4 5.2
2017-Oct-23 21:18N 44°54' W 124°41'2 7.3
2017-Oct-23 21:00N 44°53' W 124°39'4 7.5
2017-Oct-23 20:30N 44°51' W 124°34'5 7.5
2017-Oct-23 19:48N 44°48' W 124°28'  
2017-Oct-18 04:33N 45°02' W 124°43'0 0.0
2017-Oct-18 04:25N 45°02' W 124°43'3 6.2
2017-Oct-18 03:59N 45°03' W 124°46'5 6.4
2017-Oct-18 03:16N 45°06' W 124°51'2 5.4
2017-Oct-18 02:56N 45°07' W 124°53'2 4.7
2017-Oct-18 02:30N 45°07' W 124°56'1 1.3
2017-Oct-18 02:00N 45°08' W 124°55'1 0.7
2017-Oct-18 01:16N 45°07' W 124°55'2 2.2
2017-Oct-18 00:09N 45°08' W 124°52'0 2.2
2017-Oct-17 23:57N 45°08' W 124°52'1 0.7
2017-Oct-17 22:11N 45°07' W 124°53'3 7.0
2017-Oct-17 21:44N 45°04' W 124°50'16 1.7
2017-Oct-17 12:36N 44°53' W 124°35'2 0.9
2017-Oct-17 09:52N 44°54' W 124°38'0 0.4
2017-Oct-17 09:29N 44°54' W 124°38'0 0.2
2017-Oct-17 08:38N 44°54' W 124°38'0 0.3
2017-Oct-17 08:29N 44°54' W 124°38'0 0.9
2017-Oct-17 07:59N 44°54' W 124°38'4 7.3
2017-Oct-17 07:30N 44°55' W 124°33'2 2.9
2017-Oct-17 06:41N 44°57' W 124°31'0 0.9
2017-Oct-17 06:24N 44°57' W 124°31'0 1.1
2017-Oct-17 06:00N 44°56' W 124°30'2 3.6
2017-Oct-17 05:23N 44°57' W 124°33'3 8.3
2017-Oct-17 05:00N 44°59' W 124°37'4 8.0
2017-Oct-17 04:30N 45°01' W 124°41'4 7.9
2017-Oct-17 04:00N 45°03' W 124°46'4 8.0
2017-Oct-17 03:30N 45°06' W 124°51'3 6.6
2017-Oct-17 03:00N 45°07' W 124°55'1 1.0
2017-Oct-17 02:30N 45°07' W 124°55'4 7.4
2017-Oct-17 02:00N 45°04' W 124°52'4 7.3
2017-Oct-17 01:29N 45°01' W 124°48'16 3.3
2017-Oct-16 20:40N 44°48' W 124°35'0 1.5
2017-Oct-16 20:27N 44°48' W 124°35'15 6.9
2017-Oct-16 18:21N 45°00' W 124°46'3 8.1
2017-Oct-16 17:56N 45°03' W 124°49'4 8.2
2017-Oct-16 17:29N 45°06' W 124°52'4 6.2
2017-Oct-16 16:54N 45°09' W 124°55'1 1.4
2017-Oct-16 16:30N 45°09' W 124°54'0 0.7
2017-Oct-16 15:59N 45°09' W 124°54'1 1.5
2017-Oct-16 15:28N 45°08' W 124°53'4 8.3
2017-Oct-16 15:00N 45°05' W 124°51'4 8.2
2017-Oct-16 14:29N 45°01' W 124°49'3 2.7
2017-Oct-16 13:28N 44°58' W 124°48'1 0.9
2017-Oct-16 12:51N 44°59' W 124°48'0 0.9
2017-Oct-16 12:26N 44°59' W 124°48'1 0.9
2017-Oct-16 11:48N 44°60' W 124°48'0 1.0
2017-Oct-16 11:30N 44°60' W 124°48'1 1.0
2017-Oct-16 11:00N 45°00' W 124°49'1 1.0
2017-Oct-16 10:30N 45°01' W 124°49'1 1.0
2017-Oct-16 10:00N 45°01' W 124°49'0 1.0
2017-Oct-16 09:30N 45°02' W 124°49'0 1.0
2017-Oct-16 09:00N 45°02' W 124°49'1 0.9
2017-Oct-16 08:28N 45°03' W 124°49'0 0.9
2017-Oct-16 08:00N 45°03' W 124°49'1 1.3
2017-Oct-16 07:20N 45°04' W 124°49'0 0.3
2017-Oct-16 06:56N 45°04' W 124°49'0 0.9
2017-Oct-16 06:30N 45°04' W 124°49'3 6.5
2017-Oct-16 06:00N 45°02' W 124°47'13 4.1
2017-Oct-16 02:47N 44°59' W 124°28'3 1.9
2017-Oct-16 01:22N 44°56' W 124°29'4 4.4
2017-Oct-16 00:27N 44°54' W 124°34'0 0.8
2017-Oct-15 23:59N 44°54' W 124°34'8 3.5
2017-Oct-15 21:44N 44°49' W 124°43'2 7.7
2017-Oct-15 21:27N 44°47' W 124°40'4 3.4
2017-Oct-15 20:17N 44°45' W 124°36'2 5.9
2017-Oct-15 19:55N 44°44' W 124°33'  

Dump ship's entire track history